createdAt,value
2017-01-29T00:00:19.499Z,0
2017-01-29T00:00:59.998Z,0
2017-01-29T00:01:40.626Z,0
2017-01-29T00:02:21.125Z,0
2017-01-29T00:03:01.596Z,0
2017-01-29T00:03:42.032Z,0
2017-01-29T00:04:22.525Z,0
2017-01-29T00:05:03.023Z,0
2017-01-29T00:05:43.520Z,0
2017-01-29T00:06:24.027Z,0
2017-01-29T00:07:04.517Z,0
2017-01-29T00:07:44.977Z,0
2017-01-29T00:08:25.463Z,0
2017-01-29T00:09:05.946Z,0
2017-01-29T00:09:46.484Z,0
2017-01-29T00:10:26.968Z,0
2017-01-29T00:11:07.490Z,0
2017-01-29T00:11:48.004Z,0
2017-01-29T00:12:28.504Z,0
2017-01-29T00:13:09.012Z,0
2017-01-29T00:13:49.537Z,0
2017-01-29T00:14:30.085Z,0
2017-01-29T00:15:10.561Z,0
2017-01-29T00:15:51.036Z,0
2017-01-29T00:16:31.507Z,0
2017-01-29T00:17:12.004Z,0
2017-01-29T00:17:52.482Z,0
2017-01-29T00:18:32.997Z,0
2017-01-29T00:19:13.462Z,0
2017-01-29T00:19:53.946Z,0
2017-01-29T00:20:34.479Z,0
2017-01-29T00:21:14.911Z,0
2017-01-29T00:21:55.401Z,0
2017-01-29T00:22:35.859Z,0
2017-01-29T00:23:16.374Z,0
2017-01-29T00:23:56.858Z,0
2017-01-29T00:24:37.338Z,0
2017-01-29T00:25:17.807Z,0
2017-01-29T00:25:58.333Z,0
2017-01-29T00:26:38.791Z,0
2017-01-29T00:27:19.290Z,0
2017-01-29T00:27:59.777Z,0
2017-01-29T00:28:40.282Z,0
2017-01-29T00:29:20.716Z,0
2017-01-29T00:30:01.196Z,0
2017-01-29T00:30:41.687Z,0
2017-01-29T00:31:22.171Z,0
2017-01-29T00:32:02.666Z,0
2017-01-29T00:32:43.118Z,0
2017-01-29T00:33:23.607Z,0
2017-01-29T00:34:04.094Z,0
2017-01-29T00:34:44.583Z,0
2017-01-29T00:35:25.042Z,0
2017-01-29T00:36:05.566Z,0
2017-01-29T00:36:46.058Z,0
2017-01-29T00:37:26.502Z,0
2017-01-29T00:38:07.001Z,0
2017-01-29T00:38:47.479Z,0
2017-01-29T00:41:00.699Z,0
2017-01-29T00:41:41.203Z,0
2017-01-29T00:42:21.716Z,0
2017-01-29T00:43:02.219Z,0
2017-01-29T00:43:42.694Z,0
2017-01-29T00:44:23.207Z,0
2017-01-29T00:45:03.692Z,0
2017-01-29T00:45:44.162Z,0
2017-01-29T00:46:24.638Z,0
2017-01-29T00:47:05.098Z,0
2017-01-29T00:47:45.582Z,0
2017-01-29T00:48:26.094Z,0
2017-01-29T00:49:06.572Z,0
2017-01-29T00:49:47.067Z,0
2017-01-29T00:50:27.532Z,0
2017-01-29T00:51:08.001Z,0
2017-01-29T00:51:48.496Z,0
2017-01-29T00:52:28.981Z,0
2017-01-29T00:53:09.440Z,0
2017-01-29T00:53:49.954Z,0
2017-01-29T00:54:30.420Z,0
2017-01-29T00:55:10.925Z,0
2017-01-29T00:55:51.425Z,0
2017-01-29T00:56:31.883Z,0
2017-01-29T00:57:12.419Z,0
2017-01-29T00:57:52.879Z,0
2017-01-29T00:58:33.383Z,0
2017-01-29T00:59:13.927Z,0
2017-01-29T00:59:54.461Z,0
2017-01-29T01:00:34.969Z,0
2017-01-29T01:01:15.495Z,0
2017-01-29T01:01:56.002Z,0
2017-01-29T01:02:36.498Z,0
2017-01-29T01:03:17.004Z,0
2017-01-29T01:03:57.534Z,0
2017-01-29T01:04:38.142Z,0
2017-01-29T01:05:18.560Z,0
2017-01-29T01:05:59.047Z,0
2017-01-29T01:06:39.561Z,0
2017-01-29T01:07:20.048Z,0
2017-01-29T01:08:00.566Z,0
2017-01-29T01:08:41.103Z,0
2017-01-29T01:09:21.604Z,0
2017-01-29T01:10:02.118Z,0
2017-01-29T01:10:42.642Z,0
2017-01-29T01:11:23.116Z,0
2017-01-29T01:12:03.647Z,0
2017-01-29T01:12:44.115Z,0
2017-01-29T01:13:24.643Z,0
2017-01-29T01:14:05.149Z,0
2017-01-29T01:14:45.675Z,0
2017-01-29T01:15:26.129Z,0
2017-01-29T01:16:06.641Z,0
2017-01-29T01:16:47.146Z,0
2017-01-29T01:17:27.636Z,0
2017-01-29T01:18:08.191Z,0
2017-01-29T01:18:48.607Z,0
2017-01-29T01:19:29.065Z,0
2017-01-29T01:20:09.576Z,0
2017-01-29T01:20:50.093Z,0
2017-01-29T01:21:30.605Z,0
2017-01-29T01:22:11.115Z,0
2017-01-29T01:22:51.629Z,0
2017-01-29T01:23:32.159Z,0
2017-01-29T01:24:12.655Z,0
2017-01-29T01:24:53.175Z,0
2017-01-29T01:25:33.689Z,0
2017-01-29T01:26:14.172Z,0
2017-01-29T01:26:54.653Z,0
2017-01-29T01:27:35.143Z,0
2017-01-29T01:28:15.650Z,0
2017-01-29T01:28:56.168Z,0
2017-01-29T01:29:36.685Z,0
2017-01-29T01:30:17.189Z,0
2017-01-29T01:30:57.714Z,0
2017-01-29T01:31:38.204Z,0
2017-01-29T01:32:18.670Z,0
2017-01-29T01:32:59.146Z,0
2017-01-29T01:33:39.662Z,0
2017-01-29T01:34:20.212Z,0
2017-01-29T01:35:00.695Z,0
2017-01-29T01:35:41.154Z,0
2017-01-29T01:36:21.666Z,0
2017-01-29T01:37:02.146Z,0
2017-01-29T01:37:42.662Z,0
2017-01-29T01:38:23.124Z,0
2017-01-29T01:39:03.640Z,0
2017-01-29T01:39:44.075Z,0
2017-01-29T01:40:24.611Z,0
2017-01-29T01:41:05.071Z,0
2017-01-29T01:41:45.585Z,0
2017-01-29T01:42:26.054Z,0
2017-01-29T01:43:06.587Z,0
2017-01-29T01:43:47.101Z,0
2017-01-29T01:44:27.608Z,0
2017-01-29T01:45:08.068Z,0
2017-01-29T01:45:48.579Z,0
2017-01-29T01:46:29.087Z,0
2017-01-29T01:47:09.584Z,0
2017-01-29T01:47:50.110Z,0
2017-01-29T01:48:30.604Z,0
2017-01-29T01:49:11.104Z,0
2017-01-29T01:49:51.590Z,0
2017-01-29T01:50:32.083Z,0
2017-01-29T01:51:12.603Z,0
2017-01-29T01:51:53.078Z,0
2017-01-29T01:52:33.563Z,0
2017-01-29T01:53:14.023Z,0
2017-01-29T01:53:54.554Z,0
2017-01-29T01:54:35.061Z,0
2017-01-29T01:55:15.573Z,0
2017-01-29T01:55:56.107Z,0
2017-01-29T01:56:36.594Z,0
2017-01-29T01:57:17.123Z,0
2017-01-29T01:57:57.789Z,0
2017-01-29T01:58:38.268Z,0
2017-01-29T01:59:18.773Z,0
2017-01-29T01:59:59.299Z,0
2017-01-29T02:00:39.806Z,0
2017-01-29T02:01:20.332Z,0
2017-01-29T02:02:00.828Z,0
2017-01-29T02:02:41.351Z,0
2017-01-29T02:03:21.833Z,0
2017-01-29T02:04:02.320Z,0
2017-01-29T02:04:42.790Z,0
2017-01-29T02:05:23.278Z,0
2017-01-29T02:06:03.742Z,0
2017-01-29T02:06:44.255Z,0
2017-01-29T02:07:24.722Z,0
2017-01-29T02:08:05.237Z,0
2017-01-29T02:08:45.710Z,0
2017-01-29T02:09:26.207Z,0
2017-01-29T02:10:06.668Z,0
2017-01-29T02:10:47.173Z,0
2017-01-29T02:11:27.644Z,0
2017-01-29T02:12:08.117Z,0
2017-01-29T02:12:48.617Z,0
2017-01-29T02:13:29.140Z,0
2017-01-29T02:14:09.590Z,0
2017-01-29T02:14:50.086Z,0
2017-01-29T02:15:30.521Z,0
2017-01-29T02:16:11.001Z,0
2017-01-29T02:16:51.496Z,0
2017-01-29T02:17:31.973Z,0
2017-01-29T02:18:12.470Z,0
2017-01-29T02:18:52.976Z,0
2017-01-29T02:19:33.447Z,0
2017-01-29T02:20:13.938Z,0
2017-01-29T02:20:54.430Z,0
2017-01-29T02:21:34.923Z,0
2017-01-29T02:22:15.403Z,0
2017-01-29T02:22:55.918Z,0
2017-01-29T02:23:36.396Z,0
2017-01-29T02:24:16.894Z,0
2017-01-29T02:24:57.375Z,0
2017-01-29T02:25:37.883Z,0
2017-01-29T02:26:18.366Z,0
2017-01-29T02:26:58.793Z,0
2017-01-29T02:27:39.297Z,0
2017-01-29T02:28:19.821Z,0
2017-01-29T02:29:00.289Z,0
2017-01-29T02:29:40.749Z,0
2017-01-29T02:30:21.229Z,0
2017-01-29T02:31:01.764Z,0
2017-01-29T02:31:42.234Z,0
2017-01-29T02:32:22.765Z,0
2017-01-29T02:33:03.291Z,0
2017-01-29T02:33:43.796Z,0
2017-01-29T02:34:24.373Z,0
2017-01-29T02:35:04.781Z,0
2017-01-29T02:35:45.328Z,0
2017-01-29T02:36:25.751Z,0
2017-01-29T02:37:06.250Z,0
2017-01-29T02:37:46.759Z,0
2017-01-29T02:38:27.267Z,0
2017-01-29T02:39:07.747Z,0
2017-01-29T02:39:48.242Z,0
2017-01-29T02:40:28.693Z,0
2017-01-29T02:41:09.206Z,0
2017-01-29T02:41:49.708Z,0
2017-01-29T02:42:30.216Z,0
2017-01-29T02:43:10.667Z,0
2017-01-29T02:43:51.192Z,0
2017-01-29T02:44:31.665Z,0
2017-01-29T02:45:12.144Z,0
2017-01-29T02:45:52.646Z,0
2017-01-29T02:46:33.171Z,0
2017-01-29T02:47:13.646Z,0
2017-01-29T02:47:54.145Z,0
2017-01-29T02:48:34.659Z,0
2017-01-29T02:49:15.070Z,0
2017-01-29T02:49:55.574Z,0
2017-01-29T02:50:36.084Z,0
2017-01-29T02:51:16.618Z,0
2017-01-29T02:51:57.090Z,0
2017-01-29T02:52:37.578Z,0
2017-01-29T02:53:18.069Z,0
2017-01-29T02:53:58.613Z,0
2017-01-29T02:54:39.090Z,0
2017-01-29T02:55:19.575Z,0
2017-01-29T02:56:00.216Z,0
2017-01-29T02:56:40.608Z,0
2017-01-29T02:57:21.099Z,0
2017-01-29T02:58:01.618Z,0
2017-01-29T02:58:42.102Z,0
2017-01-29T02:59:22.650Z,0
2017-01-29T03:00:03.091Z,0
2017-01-29T03:00:43.607Z,0
2017-01-29T03:01:24.120Z,0
2017-01-29T03:02:04.634Z,0
2017-01-29T03:02:45.149Z,0
2017-01-29T03:03:25.683Z,0
2017-01-29T03:04:06.165Z,0
2017-01-29T03:04:46.665Z,0
2017-01-29T03:05:27.438Z,0
2017-01-29T03:06:07.948Z,0
2017-01-29T03:06:48.392Z,0
2017-01-29T03:07:28.927Z,0
2017-01-29T03:08:09.435Z,0
2017-01-29T03:08:49.923Z,0
2017-01-29T03:09:30.440Z,0
2017-01-29T03:10:10.931Z,0
2017-01-29T03:10:51.463Z,0
2017-01-29T03:11:31.983Z,0
2017-01-29T03:12:12.477Z,0
2017-01-29T03:12:52.933Z,0
2017-01-29T03:13:33.435Z,0
2017-01-29T03:14:13.941Z,0
2017-01-29T03:14:54.480Z,0
2017-01-29T03:15:35.004Z,0
2017-01-29T03:16:15.528Z,0
2017-01-29T03:16:55.974Z,0
2017-01-29T03:17:36.485Z,0
2017-01-29T03:18:17.005Z,0
2017-01-29T03:18:57.452Z,0
2017-01-29T03:19:37.975Z,0
2017-01-29T03:20:18.468Z,0
2017-01-29T03:20:58.939Z,0
2017-01-29T03:21:39.469Z,0
2017-01-29T03:22:19.936Z,0
2017-01-29T03:23:00.460Z,0
2017-01-29T03:23:40.988Z,0
2017-01-29T03:24:21.500Z,0
2017-01-29T03:25:02.020Z,0
2017-01-29T03:25:42.524Z,0
2017-01-29T03:26:23.024Z,0
2017-01-29T03:27:03.526Z,0
2017-01-29T03:27:44.047Z,0
2017-01-29T03:28:24.556Z,0
2017-01-29T03:29:05.089Z,0
2017-01-29T03:29:45.583Z,0
2017-01-29T03:30:26.127Z,0
2017-01-29T03:31:06.598Z,0
2017-01-29T03:31:47.045Z,0
2017-01-29T03:32:27.564Z,0
2017-01-29T03:33:08.080Z,0
2017-01-29T03:33:48.605Z,0
2017-01-29T03:34:29.121Z,0
2017-01-29T03:35:09.630Z,0
2017-01-29T03:35:50.191Z,0
2017-01-29T03:36:30.704Z,0
2017-01-29T03:37:11.220Z,0
2017-01-29T03:37:51.654Z,0
2017-01-29T03:38:32.142Z,0
2017-01-29T03:39:12.660Z,0
2017-01-29T03:39:53.201Z,0
2017-01-29T03:40:33.692Z,0
2017-01-29T03:41:14.201Z,0
2017-01-29T03:41:54.693Z,0
2017-01-29T03:42:35.269Z,0
2017-01-29T03:43:15.791Z,0
2017-01-29T03:43:56.285Z,0
2017-01-29T03:44:36.793Z,0
2017-01-29T03:45:17.311Z,0
2017-01-29T03:45:57.827Z,0
2017-01-29T03:46:38.290Z,0
2017-01-29T03:47:18.821Z,0
2017-01-29T03:47:59.297Z,0
2017-01-29T03:48:39.791Z,0
2017-01-29T03:49:20.290Z,0
2017-01-29T03:50:00.833Z,0
2017-01-29T03:50:41.305Z,0
2017-01-29T03:51:21.834Z,0
2017-01-29T03:52:02.315Z,0
2017-01-29T03:52:42.820Z,0
2017-01-29T03:53:23.279Z,0
2017-01-29T03:54:03.767Z,0
2017-01-29T03:54:44.266Z,0
2017-01-29T03:55:24.778Z,0
2017-01-29T03:56:05.291Z,0
2017-01-29T03:56:45.807Z,0
2017-01-29T03:57:26.318Z,0
2017-01-29T03:58:06.906Z,0
2017-01-29T03:58:47.380Z,0
2017-01-29T03:59:27.880Z,0
2017-01-29T04:00:08.396Z,0
2017-01-29T04:00:48.907Z,0
2017-01-29T04:01:39.602Z,0
2017-01-29T04:02:22.377Z,0
2017-01-29T04:03:02.407Z,0
2017-01-29T04:03:43.943Z,0
2017-01-29T04:04:25.087Z,0
2017-01-29T04:07:42.628Z,0
2017-01-29T04:08:23.159Z,0
2017-01-29T04:09:03.638Z,0
2017-01-29T04:09:44.137Z,0
2017-01-29T04:10:24.678Z,0
2017-01-29T04:11:05.147Z,0
2017-01-29T04:13:03.316Z,0
2017-01-29T04:13:43.830Z,0
2017-01-29T04:14:24.317Z,0
2017-01-29T04:15:04.822Z,0
2017-01-29T04:15:45.312Z,0
2017-01-29T04:16:25.832Z,0
2017-01-29T04:17:06.328Z,0
2017-01-29T04:17:46.853Z,0
2017-01-29T04:18:27.335Z,0
2017-01-29T04:19:07.852Z,0
2017-01-29T04:19:48.349Z,0
2017-01-29T04:20:28.870Z,0
2017-01-29T04:21:09.367Z,0
2017-01-29T04:21:49.863Z,0
2017-01-29T04:22:30.340Z,0
2017-01-29T04:23:10.867Z,0
2017-01-29T04:23:51.356Z,0
2017-01-29T04:24:31.871Z,0
2017-01-29T04:25:12.412Z,0
2017-01-29T04:25:52.871Z,0
2017-01-29T04:26:33.374Z,0
2017-01-29T04:27:13.874Z,0
2017-01-29T04:27:54.369Z,0
2017-01-29T04:28:34.875Z,0
2017-01-29T04:29:15.387Z,0
2017-01-29T04:29:55.868Z,0
2017-01-29T04:30:36.447Z,0
2017-01-29T04:31:16.963Z,0
2017-01-29T04:31:57.474Z,0
2017-01-29T04:32:37.957Z,0
2017-01-29T04:33:18.495Z,0
2017-01-29T04:33:58.960Z,0
2017-01-29T04:34:39.489Z,0
2017-01-29T04:35:19.979Z,0
2017-01-29T04:36:00.503Z,0
2017-01-29T04:36:41.004Z,0
2017-01-29T04:38:54.236Z,0
2017-01-29T04:39:34.763Z,0
2017-01-29T04:40:15.237Z,0
2017-01-29T04:40:55.738Z,0
2017-01-29T04:41:36.285Z,0
2017-01-29T04:42:16.787Z,0
2017-01-29T04:42:57.284Z,0
2017-01-29T04:43:37.876Z,0
2017-01-29T04:44:18.368Z,0
2017-01-29T04:44:58.856Z,0
2017-01-29T04:45:39.336Z,0
2017-01-29T04:47:37.516Z,0
2017-01-29T04:48:18.004Z,0
2017-01-29T04:48:58.489Z,0
2017-01-29T04:49:39.008Z,0
2017-01-29T04:50:19.490Z,0
2017-01-29T04:51:00.022Z,0
2017-01-29T04:51:40.555Z,0
2017-01-29T04:52:21.065Z,0
2017-01-29T04:53:01.563Z,0
2017-01-29T04:53:42.055Z,0
2017-01-29T04:54:22.599Z,0
2017-01-29T04:55:03.096Z,0
2017-01-29T04:55:43.586Z,0
2017-01-29T04:56:24.098Z,0
2017-01-29T04:57:04.601Z,0
2017-01-29T04:57:45.081Z,0
2017-01-29T04:58:25.552Z,0
2017-01-29T04:59:06.080Z,0
2017-01-29T04:59:46.620Z,0
2017-01-29T05:00:27.102Z,0
2017-01-29T05:01:07.618Z,0
2017-01-29T05:01:48.158Z,0
2017-01-29T05:02:28.637Z,0
2017-01-29T05:03:09.166Z,0
2017-01-29T05:03:49.706Z,0
2017-01-29T05:04:30.187Z,0
2017-01-29T05:05:10.678Z,0
2017-01-29T05:05:51.175Z,0
2017-01-29T05:06:31.734Z,0
2017-01-29T05:07:12.200Z,0
2017-01-29T05:07:52.738Z,0
2017-01-29T05:08:33.226Z,0
2017-01-29T05:09:13.800Z,0
2017-01-29T05:09:54.299Z,0
2017-01-29T05:10:34.819Z,0
2017-01-29T05:11:15.302Z,0
2017-01-29T05:11:55.816Z,0
2017-01-29T05:12:36.301Z,0
2017-01-29T05:13:17.389Z,0
2017-01-29T05:13:57.443Z,0
2017-01-29T05:14:37.951Z,0
2017-01-29T05:15:18.449Z,0
2017-01-29T05:15:58.999Z,0
2017-01-29T05:16:39.500Z,0
2017-01-29T05:18:57.850Z,0
2017-01-29T05:19:38.351Z,0
2017-01-29T05:20:18.941Z,0
2017-01-29T05:22:47.377Z,0
2017-01-29T05:23:27.877Z,0
2017-01-29T05:24:08.386Z,0
2017-01-29T05:24:48.915Z,0
2017-01-29T05:25:29.434Z,0
2017-01-29T05:26:09.936Z,0
2017-01-29T05:26:50.438Z,0
2017-01-29T05:27:30.945Z,0
2017-01-29T05:28:11.471Z,0
2017-01-29T05:28:51.959Z,0
2017-01-29T05:29:32.512Z,0
2017-01-29T05:30:13.033Z,0
2017-01-29T05:30:53.536Z,0
2017-01-29T05:31:34.079Z,0
2017-01-29T05:32:14.580Z,0
2017-01-29T05:34:43.063Z,0
2017-01-29T05:35:23.566Z,0
2017-01-29T05:36:04.086Z,0
2017-01-29T05:36:44.569Z,0
2017-01-29T05:37:25.071Z,0
2017-01-29T05:38:05.567Z,0
2017-01-29T05:38:46.072Z,0
2017-01-29T05:39:26.616Z,0
2017-01-29T05:40:07.080Z,0
2017-01-29T05:42:35.575Z,0
2017-01-29T05:43:16.072Z,0
2017-01-29T05:43:56.582Z,0
2017-01-29T05:44:37.101Z,0
2017-01-29T05:45:17.665Z,0
2017-01-29T05:45:58.224Z,0
2017-01-29T05:46:38.774Z,0
2017-01-29T05:47:19.259Z,0
2017-01-29T05:47:59.761Z,0
2017-01-29T05:48:40.246Z,0
2017-01-29T05:49:20.736Z,0
2017-01-29T05:50:01.219Z,0
2017-01-29T05:50:41.729Z,0
2017-01-29T05:51:22.239Z,0
2017-01-29T05:52:02.730Z,0
2017-01-29T05:52:43.267Z,0
2017-01-29T05:53:23.770Z,0
2017-01-29T05:54:04.273Z,0
2017-01-29T05:54:44.766Z,0
2017-01-29T05:55:25.294Z,0
2017-01-29T05:56:05.777Z,0
2017-01-29T05:56:46.303Z,0
2017-01-29T05:57:26.778Z,0
2017-01-29T05:58:07.274Z,0
2017-01-29T05:58:47.843Z,0
2017-01-29T05:59:28.294Z,0
2017-01-29T06:00:08.792Z,0
2017-01-29T06:00:49.292Z,0
2017-01-29T06:01:29.791Z,0
2017-01-29T06:02:10.311Z,0
2017-01-29T06:02:50.852Z,0
2017-01-29T06:03:31.366Z,0
2017-01-29T06:04:11.878Z,0
2017-01-29T06:04:52.418Z,0
2017-01-29T06:05:32.973Z,0
2017-01-29T06:06:13.488Z,0
2017-01-29T06:06:53.983Z,0
2017-01-29T06:07:34.518Z,0
2017-01-29T06:08:15.030Z,0
2017-01-29T06:08:55.530Z,0
2017-01-29T06:09:36.078Z,0
2017-01-29T06:10:16.560Z,0
2017-01-29T06:10:57.071Z,0
2017-01-29T06:11:37.588Z,0
2017-01-29T06:12:18.084Z,0
2017-01-29T06:12:58.601Z,0
2017-01-29T06:13:39.084Z,0
2017-01-29T06:14:19.600Z,0
2017-01-29T06:15:00.098Z,0
2017-01-29T06:17:13.322Z,0
2017-01-29T06:17:53.833Z,0
2017-01-29T06:18:34.365Z,0
2017-01-29T06:19:14.846Z,0
2017-01-29T06:19:55.361Z,0
2017-01-29T06:20:35.863Z,0
2017-01-29T06:22:49.922Z,0
2017-01-29T06:23:30.418Z,0
2017-01-29T06:24:10.951Z,0
2017-01-29T06:24:52.357Z,0
2017-01-29T06:27:36.195Z,0
2017-01-29T06:28:16.707Z,0
2017-01-29T06:28:57.223Z,0
2017-01-29T06:29:37.738Z,0
2017-01-29T06:30:18.224Z,0
2017-01-29T06:30:58.744Z,0
2017-01-29T06:31:39.262Z,0
2017-01-29T06:32:19.758Z,0
2017-01-29T06:33:00.233Z,0
2017-01-29T06:33:40.729Z,0
2017-01-29T06:34:21.206Z,0
2017-01-29T06:35:01.712Z,4
2017-01-29T06:35:43.045Z,4
2017-01-29T06:36:23.534Z,0
2017-01-29T06:37:04.061Z,0
2017-01-29T06:37:44.529Z,4
2017-01-29T06:38:25.727Z,4
2017-01-29T06:39:06.687Z,0
2017-01-29T06:39:48.644Z,4
2017-01-29T06:40:30.678Z,4
2017-01-29T06:41:11.188Z,4
2017-01-29T06:41:52.430Z,4
2017-01-29T06:42:32.986Z,8
2017-01-29T06:43:13.363Z,8
2017-01-29T06:43:53.870Z,8
2017-01-29T06:44:34.672Z,12
2017-01-29T06:45:15.137Z,12
2017-01-29T06:47:34.177Z,12
2017-01-29T06:48:14.665Z,16
2017-01-29T06:48:55.157Z,20
2017-01-29T06:49:35.652Z,20
2017-01-29T06:50:16.159Z,24
2017-01-29T06:50:56.665Z,24
2017-01-29T06:51:37.155Z,28
2017-01-29T06:52:17.656Z,32
2017-01-29T06:52:58.223Z,32
2017-01-29T06:53:38.722Z,40
2017-01-29T06:54:19.209Z,40
2017-01-29T06:54:59.713Z,44
2017-01-29T06:55:40.188Z,48
2017-01-29T06:56:20.700Z,52
2017-01-29T06:57:01.169Z,56
2017-01-29T06:57:41.643Z,60
2017-01-29T06:58:22.181Z,64
2017-01-29T06:59:02.625Z,68
2017-01-29T06:59:43.149Z,76
2017-01-29T07:00:23.655Z,80
2017-01-29T07:01:04.140Z,84
2017-01-29T07:01:44.603Z,88
2017-01-29T07:02:25.085Z,92
2017-01-29T07:03:05.619Z,104
2017-01-29T07:03:46.448Z,112
2017-01-29T07:04:26.916Z,128
2017-01-29T07:05:07.444Z,136
2017-01-29T07:05:47.902Z,148
2017-01-29T07:06:28.417Z,160
2017-01-29T07:07:09.550Z,168
2017-01-29T07:07:50.690Z,180
2017-01-29T07:08:31.200Z,196
2017-01-29T07:09:11.706Z,208
2017-01-29T07:09:52.164Z,224
2017-01-29T07:10:32.654Z,244
2017-01-29T07:11:13.129Z,260
2017-01-29T07:11:53.639Z,276
2017-01-29T07:12:34.136Z,288
2017-01-29T07:13:14.852Z,300
2017-01-29T07:13:55.596Z,316
2017-01-29T07:14:35.924Z,332
2017-01-29T07:15:16.388Z,344
2017-01-29T07:15:57.759Z,360
2017-01-29T07:16:38.171Z,376
2017-01-29T07:17:19.936Z,392
2017-01-29T07:18:00.459Z,408
2017-01-29T07:18:40.945Z,428
2017-01-29T07:19:21.457Z,448
2017-01-29T07:20:01.969Z,472
2017-01-29T07:20:42.476Z,492
2017-01-29T07:21:22.993Z,512
2017-01-29T07:22:03.480Z,532
2017-01-29T07:22:43.954Z,548
2017-01-29T07:23:24.437Z,572
2017-01-29T07:24:04.921Z,592
2017-01-29T07:24:45.406Z,608
2017-01-29T07:25:25.894Z,620
2017-01-29T07:26:06.408Z,636
2017-01-29T07:26:46.898Z,656
2017-01-29T07:27:27.388Z,668
2017-01-29T07:28:07.913Z,692
2017-01-29T07:28:48.441Z,720
2017-01-29T07:29:28.967Z,740
2017-01-29T07:30:09.579Z,760
2017-01-29T07:30:50.074Z,792
2017-01-29T07:31:30.598Z,824
2017-01-29T07:32:11.092Z,856
2017-01-29T07:32:51.612Z,880
2017-01-29T07:33:32.140Z,900
2017-01-29T07:34:12.611Z,920
2017-01-29T07:34:53.121Z,944
2017-01-29T07:35:33.641Z,964
2017-01-29T07:36:14.149Z,988
2017-01-29T07:36:54.662Z,1008
2017-01-29T07:37:35.161Z,1032
2017-01-29T07:38:15.656Z,1052
2017-01-29T07:38:56.141Z,1076
2017-01-29T07:39:36.668Z,1092
2017-01-29T07:40:17.192Z,1116
2017-01-29T07:40:57.692Z,1136
2017-01-29T07:41:38.190Z,1156
2017-01-29T07:42:18.703Z,1172
2017-01-29T07:42:59.183Z,1188
2017-01-29T07:43:39.684Z,1208
2017-01-29T07:44:20.174Z,1228
2017-01-29T07:45:00.686Z,1248
2017-01-29T07:45:41.182Z,1268
2017-01-29T07:46:21.719Z,1292
2017-01-29T07:47:02.185Z,1308
2017-01-29T07:47:42.690Z,1328
2017-01-29T07:48:23.202Z,1344
2017-01-29T07:49:03.692Z,1356
2017-01-29T07:49:44.190Z,1384
2017-01-29T07:50:24.695Z,1412
2017-01-29T07:51:05.196Z,1444
2017-01-29T07:51:45.726Z,1480
2017-01-29T07:52:26.226Z,1516
2017-01-29T07:53:06.681Z,1548
2017-01-29T07:53:47.176Z,1568
2017-01-29T07:54:27.693Z,1592
2017-01-29T07:55:08.168Z,1596
2017-01-29T07:55:48.641Z,1592
2017-01-29T07:58:06.955Z,1492
2017-01-29T07:58:47.469Z,1468
2017-01-29T07:59:27.983Z,1440
2017-01-29T08:00:08.495Z,1412
2017-01-29T08:00:49.008Z,1396
2017-01-29T08:01:29.513Z,1400
2017-01-29T08:02:10.020Z,1408
2017-01-29T08:02:50.569Z,1436
2017-01-29T08:03:31.096Z,1492
2017-01-29T08:04:11.610Z,1588
2017-01-29T08:04:52.112Z,1684
2017-01-29T08:05:32.604Z,1752
2017-01-29T08:06:13.112Z,1840
2017-01-29T08:06:53.596Z,1920
2017-01-29T08:07:34.075Z,1988
2017-01-29T08:08:14.585Z,2016
2017-01-29T08:08:55.075Z,2024
2017-01-29T08:09:35.593Z,2032
2017-01-29T08:10:16.126Z,2044
2017-01-29T08:10:56.645Z,2036
2017-01-29T08:11:37.154Z,2024
2017-01-29T08:12:17.682Z,2016
2017-01-29T08:12:58.172Z,2000
2017-01-29T08:13:38.650Z,1956
2017-01-29T08:14:19.128Z,1924
2017-01-29T08:14:59.630Z,1908
2017-01-29T08:15:40.117Z,1908
2017-01-29T08:16:20.644Z,1912
2017-01-29T08:17:01.198Z,1920
2017-01-29T08:17:41.725Z,1924
2017-01-29T08:18:22.215Z,1936
2017-01-29T08:19:02.732Z,1944
2017-01-29T08:19:43.221Z,1956
2017-01-29T08:20:23.732Z,1968
2017-01-29T08:21:04.237Z,1980
2017-01-29T08:21:44.842Z,1996
2017-01-29T08:22:25.370Z,2012
2017-01-29T08:23:05.852Z,2020
2017-01-29T08:23:46.340Z,2032
2017-01-29T08:24:26.795Z,2040
2017-01-29T08:25:07.304Z,2044
2017-01-29T08:25:47.791Z,2048
2017-01-29T08:26:28.266Z,2056
2017-01-29T08:27:08.737Z,2064
2017-01-29T08:27:49.235Z,2072
2017-01-29T08:28:29.702Z,2080
2017-01-29T08:29:10.159Z,2088
2017-01-29T08:29:50.681Z,2088
2017-01-29T08:30:31.146Z,2092
2017-01-29T08:31:11.601Z,2096
2017-01-29T08:31:52.103Z,2100
2017-01-29T08:32:32.609Z,2112
2017-01-29T08:33:13.082Z,2124
2017-01-29T08:33:53.548Z,2136
2017-01-29T08:34:34.045Z,2148
2017-01-29T08:35:14.562Z,2152
2017-01-29T08:35:55.044Z,2152
2017-01-29T08:36:35.532Z,2160
2017-01-29T08:37:15.997Z,2196
2017-01-29T08:37:56.466Z,2276
2017-01-29T08:38:36.955Z,2384
2017-01-29T08:39:17.478Z,2476
2017-01-29T08:39:57.948Z,2540
2017-01-29T08:40:38.494Z,2596
2017-01-29T08:41:18.946Z,2676
2017-01-29T08:41:59.504Z,2688
2017-01-29T08:42:39.904Z,2672
2017-01-29T08:43:20.389Z,2676
2017-01-29T08:44:00.883Z,2588
2017-01-29T08:44:41.343Z,2528
2017-01-29T08:45:21.805Z,2408
2017-01-29T08:46:02.424Z,2364
2017-01-29T08:46:42.843Z,2352
2017-01-29T08:47:23.339Z,2324
2017-01-29T08:48:03.814Z,2264
2017-01-29T08:48:44.298Z,2220
2017-01-29T08:49:24.772Z,2208
2017-01-29T08:50:05.255Z,2224
2017-01-29T08:50:45.783Z,2200
2017-01-29T08:51:26.412Z,2172
2017-01-29T08:52:06.764Z,2168
2017-01-29T08:52:47.254Z,2152
2017-01-29T08:53:27.763Z,2156
2017-01-29T08:54:08.243Z,2160
2017-01-29T08:54:48.730Z,2104
2017-01-29T08:55:29.232Z,2180
2017-01-29T08:56:09.726Z,2212
2017-01-29T08:56:50.226Z,2212
2017-01-29T08:57:30.687Z,2212
2017-01-29T08:58:11.172Z,2216
2017-01-29T08:58:51.685Z,2224
2017-01-29T08:59:32.152Z,2224
2017-01-29T09:00:12.629Z,2224
2017-01-29T09:00:53.113Z,2220
2017-01-29T09:01:33.631Z,2220
2017-01-29T09:02:14.089Z,2228
2017-01-29T09:02:54.589Z,2236
2017-01-29T09:03:35.080Z,2244
2017-01-29T09:04:15.601Z,2252
2017-01-29T09:04:56.089Z,2228
2017-01-29T09:05:36.604Z,2256
2017-01-29T09:06:17.104Z,2264
2017-01-29T09:06:57.630Z,2264
2017-01-29T09:07:38.135Z,2268
2017-01-29T09:08:18.649Z,2268
2017-01-29T09:08:59.160Z,2260
2017-01-29T09:09:39.687Z,2268
2017-01-29T09:10:20.178Z,2272
2017-01-29T09:11:00.638Z,2276
2017-01-29T09:11:41.141Z,2276
2017-01-29T09:12:21.670Z,2272
2017-01-29T09:13:02.163Z,2268
2017-01-29T09:13:42.648Z,2264
2017-01-29T09:14:23.105Z,2244
2017-01-29T09:15:03.617Z,2224
2017-01-29T09:15:44.138Z,2208
2017-01-29T09:16:24.654Z,2212
2017-01-29T09:17:05.201Z,2220
2017-01-29T09:17:45.695Z,2232
2017-01-29T09:18:26.189Z,2248
2017-01-29T09:19:06.715Z,2268
2017-01-29T09:19:47.218Z,2288
2017-01-29T09:20:27.722Z,2304
2017-01-29T09:21:08.199Z,2308
2017-01-29T09:21:48.832Z,2304
2017-01-29T09:22:29.413Z,2300
2017-01-29T09:23:09.971Z,2284
2017-01-29T09:23:50.479Z,2272
2017-01-29T09:24:30.993Z,2272
2017-01-29T09:25:11.502Z,2280
2017-01-29T09:25:52.299Z,2288
2017-01-29T09:26:32.779Z,2288
2017-01-29T09:27:13.263Z,2276
2017-01-29T09:27:53.784Z,2264
2017-01-29T09:28:34.304Z,2252
2017-01-29T09:29:14.809Z,2240
2017-01-29T09:29:55.340Z,2240
2017-01-29T09:30:35.838Z,2252
2017-01-29T09:31:16.390Z,2272
2017-01-29T09:31:56.951Z,2272
2017-01-29T09:32:37.447Z,2264
2017-01-29T09:33:18.104Z,2240
2017-01-29T09:33:58.593Z,2220
2017-01-29T09:34:39.043Z,2208
2017-01-29T09:35:19.553Z,2192
2017-01-29T09:36:00.022Z,2180
2017-01-29T09:38:18.444Z,2164
2017-01-29T09:38:58.961Z,2160
2017-01-29T09:39:39.601Z,2152
2017-01-29T09:40:20.113Z,2140
2017-01-29T09:41:00.646Z,2140
2017-01-29T09:41:41.112Z,2148
2017-01-29T09:42:21.619Z,2156
2017-01-29T09:43:02.232Z,2176
2017-01-29T09:43:42.665Z,2204
2017-01-29T09:44:23.122Z,2232
2017-01-29T09:45:03.652Z,2256
2017-01-29T09:45:44.124Z,2256
2017-01-29T09:46:24.626Z,2240
2017-01-29T09:47:05.123Z,2204
2017-01-29T09:47:45.612Z,2160
2017-01-29T09:48:26.103Z,2132
2017-01-29T09:49:06.635Z,2120
2017-01-29T09:49:47.892Z,2108
2017-01-29T09:50:28.950Z,2100
2017-01-29T09:51:09.473Z,2088
2017-01-29T09:51:49.916Z,2076
2017-01-29T09:52:30.394Z,2068
2017-01-29T09:53:11.275Z,2064
2017-01-29T09:53:51.784Z,2076
2017-01-29T09:54:32.258Z,2080
2017-01-29T09:55:12.751Z,2080
2017-01-29T09:55:56.847Z,2096
2017-01-29T09:56:41.432Z,2120
2017-01-29T09:57:21.996Z,2128
2017-01-29T10:05:08.440Z,2176
2017-01-29T10:05:48.931Z,2176
2017-01-29T10:06:29.403Z,2184
2017-01-29T10:07:10.035Z,2200
2017-01-29T10:07:50.553Z,2212
2017-01-29T10:08:31.345Z,2220
2017-01-29T10:09:11.893Z,2232
2017-01-29T10:09:52.449Z,2240
2017-01-29T10:10:33.127Z,2248
2017-01-29T10:11:13.682Z,2244
2017-01-29T10:11:55.939Z,2244
2017-01-29T10:12:36.480Z,2240